sensor_id;sensor_type;location;lat;lon;timestamp;temperature;humidity
12769;DHT22;6448;48.916;8.990;2023-06-24T00:00:35;25.20;43.50
12769;DHT22;6448;48.916;8.990;2023-06-24T00:01:37;25.20;43.50
12769;DHT22;6448;48.916;8.990;2023-06-24T00:02:39;25.20;43.50
12769;DHT22;6448;48.916;8.990;2023-06-24T00:03:43;25.10;43.40
12769;DHT22;6448;48.916;8.990;2023-06-24T00:04:47;25.10;43.40
12769;DHT22;6448;48.916;8.990;2023-06-24T00:05:49;25.10;43.40
12769;DHT22;6448;48.916;8.990;2023-06-24T00:06:50;25.10;43.50
12769;DHT22;6448;48.916;8.990;2023-06-24T00:07:53;25.10;43.50
12769;DHT22;6448;48.916;8.990;2023-06-24T00:08:57;25.00;43.60
12769;DHT22;6448;48.916;8.990;2023-06-24T00:10:01;25.00;43.60
12769;DHT22;6448;48.916;8.990;2023-06-24T00:11:04;25.00;43.60
12769;DHT22;6448;48.916;8.990;2023-06-24T00:12:07;25.00;43.60
12769;DHT22;6448;48.916;8.990;2023-06-24T00:13:08;24.90;43.50
12769;DHT22;6448;48.916;8.990;2023-06-24T00:14:10;24.90;43.60
12769;DHT22;6448;48.916;8.990;2023-06-24T00:15:11;24.90;43.60
12769;DHT22;6448;48.916;8.990;2023-06-24T00:16:15;24.90;43.60
12769;DHT22;6448;48.916;8.990;2023-06-24T00:17:16;25.00;43.70
12769;DHT22;6448;48.916;8.990;2023-06-24T00:18:17;24.80;43.70
12769;DHT22;6448;48.916;8.990;2023-06-24T00:19:19;24.80;43.70
12769;DHT22;6448;48.916;8.990;2023-06-24T00:20:21;24.80;43.80
12769;DHT22;6448;48.916;8.990;2023-06-24T00:21:22;24.80;43.80
12769;DHT22;6448;48.916;8.990;2023-06-24T00:22:30;24.80;43.80
12769;DHT22;6448;48.916;8.990;2023-06-24T00:23:31;24.80;43.80
12769;DHT22;6448;48.916;8.990;2023-06-24T00:24:34;24.80;43.80
12769;DHT22;6448;48.916;8.990;2023-06-24T00:25:35;24.80;43.80
12769;DHT22;6448;48.916;8.990;2023-06-24T00:26:37;24.80;43.90
12769;DHT22;6448;48.916;8.990;2023-06-24T00:27:38;24.70;43.90
12769;DHT22;6448;48.916;8.990;2023-06-24T00:28:39;24.70;43.80
12769;DHT22;6448;48.916;8.990;2023-06-24T00:29:40;24.70;43.90
12769;DHT22;6448;48.916;8.990;2023-06-24T00:30:42;24.70;43.90
12769;DHT22;6448;48.916;8.990;2023-06-24T00:31:44;24.70;44.00
12769;DHT22;6448;48.916;8.990;2023-06-24T00:32:46;24.70;44.10
12769;DHT22;6448;48.916;8.990;2023-06-24T00:33:47;24.60;44.20
12769;DHT22;6448;48.916;8.990;2023-06-24T00:34:51;24.60;44.20
12769;DHT22;6448;48.916;8.990;2023-06-24T00:35:52;24.60;44.20
12769;DHT22;6448;48.916;8.990;2023-06-24T00:36:55;24.60;44.20
12769;DHT22;6448;48.916;8.990;2023-06-24T00:37:56;24.60;44.30
12769;DHT22;6448;48.916;8.990;2023-06-24T00:38:58;24.60;44.30
12769;DHT22;6448;48.916;8.990;2023-06-24T00:40:05;24.50;44.30
12769;DHT22;6448;48.916;8.990;2023-06-24T00:41:10;24.50;44.40
12769;DHT22;6448;48.916;8.990;2023-06-24T00:42:12;24.50;44.40
12769;DHT22;6448;48.916;8.990;2023-06-24T00:43:14;24.50;44.50
12769;DHT22;6448;48.916;8.990;2023-06-24T00:44:15;24.50;44.60
12769;DHT22;6448;48.916;8.990;2023-06-24T00:45:16;24.50;44.60
12769;DHT22;6448;48.916;8.990;2023-06-24T00:46:18;24.50;44.60
12769;DHT22;6448;48.916;8.990;2023-06-24T00:47:22;24.50;44.50
12769;DHT22;6448;48.916;8.990;2023-06-24T00:48:23;24.50;44.50
12769;DHT22;6448;48.916;8.990;2023-06-24T00:49:25;24.50;44.40
12769;DHT22;6448;48.916;8.990;2023-06-24T00:50:25;24.50;44.40
12769;DHT22;6448;48.916;8.990;2023-06-24T00:51:28;24.40;44.40
12769;DHT22;6448;48.916;8.990;2023-06-24T00:52:31;24.40;44.50
12769;DHT22;6448;48.916;8.990;2023-06-24T00:53:34;24.40;44.50
12769;DHT22;6448;48.916;8.990;2023-06-24T00:54:35;24.40;44.60
12769;DHT22;6448;48.916;8.990;2023-06-24T00:55:37;24.40;44.60
12769;DHT22;6448;48.916;8.990;2023-06-24T00:56:38;24.40;44.70
12769;DHT22;6448;48.916;8.990;2023-06-24T00:57:40;24.50;44.80
12769;DHT22;6448;48.916;8.990;2023-06-24T00:58:42;24.30;44.70
12769;DHT22;6448;48.916;8.990;2023-06-24T00:59:45;24.30;44.70
12769;DHT22;6448;48.916;8.990;2023-06-24T01:00:47;24.30;44.80
12769;DHT22;6448;48.916;8.990;2023-06-24T01:01:58;24.30;44.80
12769;DHT22;6448;48.916;8.990;2023-06-24T01:03:03;24.30;44.80
12769;DHT22;6448;48.916;8.990;2023-06-24T01:04:07;24.30;44.80
12769;DHT22;6448;48.916;8.990;2023-06-24T01:05:09;24.30;44.80
12769;DHT22;6448;48.916;8.990;2023-06-24T01:06:13;24.30;44.80
12769;DHT22;6448;48.916;8.990;2023-06-24T01:07:14;24.40;44.80
12769;DHT22;6448;48.916;8.990;2023-06-24T01:08:17;24.30;44.80
12769;DHT22;6448;48.916;8.990;2023-06-24T01:09:20;24.30;44.80
12769;DHT22;6448;48.916;8.990;2023-06-24T01:10:23;24.10;44.70
12769;DHT22;6448;48.916;8.990;2023-06-24T01:11:24;24.30;44.80
12769;DHT22;6448;48.916;8.990;2023-06-24T01:12:26;24.30;44.90
12769;DHT22;6448;48.916;8.990;2023-06-24T01:13:27;24.20;44.90
12769;DHT22;6448;48.916;8.990;2023-06-24T01:14:28;24.20;44.90
12769;DHT22;6448;48.916;8.990;2023-06-24T01:15:29;24.30;44.90
12769;DHT22;6448;48.916;8.990;2023-06-24T01:16:38;24.30;45.00
12769;DHT22;6448;48.916;8.990;2023-06-24T01:17:45;24.30;45.00
12769;DHT22;6448;48.916;8.990;2023-06-24T01:18:54;24.10;44.90
12769;DHT22;6448;48.916;8.990;2023-06-24T01:20:04;24.20;45.00
12769;DHT22;6448;48.916;8.990;2023-06-24T01:21:33;24.10;44.90
12769;DHT22;6448;48.916;8.990;2023-06-24T01:23:09;24.10;44.90
12769;DHT22;6448;48.916;8.990;2023-06-24T01:24:38;24.10;45.00
12769;DHT22;6448;48.916;8.990;2023-06-24T01:26:14;24.10;44.90
12769;DHT22;6448;48.916;8.990;2023-06-24T01:27:29;24.00;44.90
12769;DHT22;6448;48.916;8.990;2023-06-24T01:28:47;24.10;45.00
12769;DHT22;6448;48.916;8.990;2023-06-24T01:30:13;24.00;44.90
12769;DHT22;6448;48.916;8.990;2023-06-24T01:31:30;24.00;44.90
12769;DHT22;6448;48.916;8.990;2023-06-24T01:32:35;24.00;44.90
12769;DHT22;6448;48.916;8.990;2023-06-24T01:33:43;24.00;45.00
12769;DHT22;6448;48.916;8.990;2023-06-24T01:34:50;24.10;45.10
12769;DHT22;6448;48.916;8.990;2023-06-24T01:35:55;23.90;44.90
12769;DHT22;6448;48.916;8.990;2023-06-24T01:37:03;24.00;44.90
12769;DHT22;6448;48.916;8.990;2023-06-24T01:38:09;24.00;44.90
12769;DHT22;6448;48.916;8.990;2023-06-24T01:39:12;23.90;44.90
12769;DHT22;6448;48.916;8.990;2023-06-24T01:40:22;23.90;44.90
12769;DHT22;6448;48.916;8.990;2023-06-24T01:41:31;23.90;44.90
12769;DHT22;6448;48.916;8.990;2023-06-24T01:42:35;23.90;44.90
12769;DHT22;6448;48.916;8.990;2023-06-24T01:43:37;23.90;44.90
12769;DHT22;6448;48.916;8.990;2023-06-24T01:44:44;23.80;44.90
12769;DHT22;6448;48.916;8.990;2023-06-24T01:45:49;23.90;45.00
12769;DHT22;6448;48.916;8.990;2023-06-24T01:46:57;23.80;44.90
12769;DHT22;6448;48.916;8.990;2023-06-24T01:48:04;23.70;44.80
12769;DHT22;6448;48.916;8.990;2023-06-24T01:49:13;23.80;44.90
12769;DHT22;6448;48.916;8.990;2023-06-24T01:50:18;23.80;45.00
12769;DHT22;6448;48.916;8.990;2023-06-24T01:51:24;23.70;44.90
12769;DHT22;6448;48.916;8.990;2023-06-24T01:52:28;23.50;44.80
12769;DHT22;6448;48.916;8.990;2023-06-24T01:53:35;23.70;45.00
12769;DHT22;6448;48.916;8.990;2023-06-24T01:54:39;23.70;45.00
12769;DHT22;6448;48.916;8.990;2023-06-24T01:55:42;23.70;45.00
12769;DHT22;6448;48.916;8.990;2023-06-24T01:56:44;23.70;45.10
12769;DHT22;6448;48.916;8.990;2023-06-24T01:57:49;23.60;45.00
12769;DHT22;6448;48.916;8.990;2023-06-24T01:58:53;23.80;45.10
12769;DHT22;6448;48.916;8.990;2023-06-24T01:59:56;23.60;45.00
12769;DHT22;6448;48.916;8.990;2023-06-24T02:00:59;23.60;45.10
12769;DHT22;6448;48.916;8.990;2023-06-24T02:02:04;23.60;45.10
12769;DHT22;6448;48.916;8.990;2023-06-24T02:03:07;23.60;45.10
12769;DHT22;6448;48.916;8.990;2023-06-24T02:04:10;23.60;45.10
12769;DHT22;6448;48.916;8.990;2023-06-24T02:05:12;23.60;45.10
12769;DHT22;6448;48.916;8.990;2023-06-24T02:06:15;23.60;45.20
12769;DHT22;6448;48.916;8.990;2023-06-24T02:07:19;23.50;45.20
12769;DHT22;6448;48.916;8.990;2023-06-24T02:08:23;23.50;45.20
12769;DHT22;6448;48.916;8.990;2023-06-24T02:09:27;23.40;45.10
12769;DHT22;6448;48.916;8.990;2023-06-24T02:10:31;23.60;45.20
12769;DHT22;6448;48.916;8.990;2023-06-24T02:11:33;23.50;45.20
12769;DHT22;6448;48.916;8.990;2023-06-24T02:12:37;23.40;45.10
12769;DHT22;6448;48.916;8.990;2023-06-24T02:13:40;23.50;45.20
12769;DHT22;6448;48.916;8.990;2023-06-24T02:14:49;23.60;45.30
12769;DHT22;6448;48.916;8.990;2023-06-24T02:15:53;23.40;45.30
12769;DHT22;6448;48.916;8.990;2023-06-24T02:16:55;23.40;45.30
12769;DHT22;6448;48.916;8.990;2023-06-24T02:18:00;23.60;45.40
12769;DHT22;6448;48.916;8.990;2023-06-24T02:19:03;23.40;45.30
12769;DHT22;6448;48.916;8.990;2023-06-24T02:20:07;23.40;45.30
12769;DHT22;6448;48.916;8.990;2023-06-24T02:21:11;23.40;45.30
12769;DHT22;6448;48.916;8.990;2023-06-24T02:22:14;23.30;45.30
12769;DHT22;6448;48.916;8.990;2023-06-24T02:23:16;23.30;45.30
12769;DHT22;6448;48.916;8.990;2023-06-24T02:24:19;23.30;45.30
12769;DHT22;6448;48.916;8.990;2023-06-24T02:25:20;23.40;45.40
12769;DHT22;6448;48.916;8.990;2023-06-24T02:26:25;23.30;45.30
12769;DHT22;6448;48.916;8.990;2023-06-24T02:27:26;23.30;45.30
12769;DHT22;6448;48.916;8.990;2023-06-24T02:28:29;23.30;45.40
12769;DHT22;6448;48.916;8.990;2023-06-24T02:29:32;23.40;45.40
12769;DHT22;6448;48.916;8.990;2023-06-24T02:30:37;23.30;45.40
12769;DHT22;6448;48.916;8.990;2023-06-24T02:31:39;23.20;45.40
12769;DHT22;6448;48.916;8.990;2023-06-24T02:32:40;23.10;45.30
12769;DHT22;6448;48.916;8.990;2023-06-24T02:33:44;23.20;45.50
12769;DHT22;6448;48.916;8.990;2023-06-24T02:34:46;23.20;45.50
12769;DHT22;6448;48.916;8.990;2023-06-24T02:35:48;23.20;45.60
12769;DHT22;6448;48.916;8.990;2023-06-24T02:36:49;23.40;45.70
12769;DHT22;6448;48.916;8.990;2023-06-24T02:37:51;23.10;45.60
12769;DHT22;6448;48.916;8.990;2023-06-24T02:38:52;23.20;45.60
12769;DHT22;6448;48.916;8.990;2023-06-24T02:39:54;23.10;45.60
12769;DHT22;6448;48.916;8.990;2023-06-24T02:40:55;23.10;46.40
12769;DHT22;6448;48.916;8.990;2023-06-24T02:41:59;23.30;45.80
12769;DHT22;6448;48.916;8.990;2023-06-24T02:43:00;23.10;45.70
12769;DHT22;6448;48.916;8.990;2023-06-24T02:44:01;23.10;45.70
12769;DHT22;6448;48.916;8.990;2023-06-24T02:45:04;23.20;45.80
12769;DHT22;6448;48.916;8.990;2023-06-24T02:46:08;23.10;45.70
12769;DHT22;6448;48.916;8.990;2023-06-24T02:47:12;23.10;45.80
12769;DHT22;6448;48.916;8.990;2023-06-24T02:48:16;23.10;45.80
12769;DHT22;6448;48.916;8.990;2023-06-24T02:49:20;23.00;45.70
12769;DHT22;6448;48.916;8.990;2023-06-24T02:50:23;23.00;45.80
12769;DHT22;6448;48.916;8.990;2023-06-24T02:51:26;23.10;45.90
12769;DHT22;6448;48.916;8.990;2023-06-24T02:52:28;23.00;45.90
12769;DHT22;6448;48.916;8.990;2023-06-24T02:53:30;23.00;45.90
12769;DHT22;6448;48.916;8.990;2023-06-24T02:54:34;23.00;45.90
12769;DHT22;6448;48.916;8.990;2023-06-24T02:55:55;23.00;46.00
12769;DHT22;6448;48.916;8.990;2023-06-24T02:56:57;23.00;46.00
12769;DHT22;6448;48.916;8.990;2023-06-24T02:58:09;22.90;45.90
12769;DHT22;6448;48.916;8.990;2023-06-24T02:59:14;23.00;45.90
12769;DHT22;6448;48.916;8.990;2023-06-24T03:00:16;22.90;45.90
12769;DHT22;6448;48.916;8.990;2023-06-24T03:01:39;22.90;45.90
12769;DHT22;6448;48.916;8.990;2023-06-24T03:02:40;22.90;46.00
12769;DHT22;6448;48.916;8.990;2023-06-24T03:03:43;22.90;46.10
12769;DHT22;6448;48.916;8.990;2023-06-24T03:04:50;22.90;46.10
12769;DHT22;6448;48.916;8.990;2023-06-24T03:05:54;22.90;46.20
12769;DHT22;6448;48.916;8.990;2023-06-24T03:06:57;22.90;46.20
12769;DHT22;6448;48.916;8.990;2023-06-24T03:08:00;23.00;46.40
12769;DHT22;6448;48.916;8.990;2023-06-24T03:09:05;23.10;46.40
12769;DHT22;6448;48.916;8.990;2023-06-24T03:10:10;22.90;46.40
12769;DHT22;6448;48.916;8.990;2023-06-24T03:11:13;22.80;46.40
12769;DHT22;6448;48.916;8.990;2023-06-24T03:12:15;22.90;46.50
12769;DHT22;6448;48.916;8.990;2023-06-24T03:13:17;22.80;46.50
12769;DHT22;6448;48.916;8.990;2023-06-24T03:14:24;22.80;46.50
12769;DHT22;6448;48.916;8.990;2023-06-24T03:15:27;22.80;47.10
12769;DHT22;6448;48.916;8.990;2023-06-24T03:16:29;22.80;46.50
12769;DHT22;6448;48.916;8.990;2023-06-24T03:17:37;22.80;46.50
12769;DHT22;6448;48.916;8.990;2023-06-24T03:18:39;22.80;46.40
12769;DHT22;6448;48.916;8.990;2023-06-24T03:19:41;22.80;46.40
12769;DHT22;6448;48.916;8.990;2023-06-24T03:20:46;22.80;46.40
12769;DHT22;6448;48.916;8.990;2023-06-24T03:21:51;22.80;46.30
12769;DHT22;6448;48.916;8.990;2023-06-24T03:22:54;22.80;46.30
12769;DHT22;6448;48.916;8.990;2023-06-24T03:23:56;22.80;46.30
12769;DHT22;6448;48.916;8.990;2023-06-24T03:25:01;22.80;46.20
12769;DHT22;6448;48.916;8.990;2023-06-24T03:26:02;22.80;46.20
12769;DHT22;6448;48.916;8.990;2023-06-24T03:27:04;22.70;46.20
12769;DHT22;6448;48.916;8.990;2023-06-24T03:28:12;22.70;46.10
12769;DHT22;6448;48.916;8.990;2023-06-24T03:29:22;22.70;46.20
12769;DHT22;6448;48.916;8.990;2023-06-24T03:30:35;22.60;46.20
12769;DHT22;6448;48.916;8.990;2023-06-24T03:31:37;22.60;46.20
12769;DHT22;6448;48.916;8.990;2023-06-24T03:32:38;22.60;46.20
12769;DHT22;6448;48.916;8.990;2023-06-24T03:33:40;22.60;46.30
12769;DHT22;6448;48.916;8.990;2023-06-24T03:34:45;22.60;46.30
12769;DHT22;6448;48.916;8.990;2023-06-24T03:35:48;22.80;46.50
12769;DHT22;6448;48.916;8.990;2023-06-24T03:36:54;22.50;46.40
12769;DHT22;6448;48.916;8.990;2023-06-24T03:37:56;22.60;46.50
12769;DHT22;6448;48.916;8.990;2023-06-24T03:38:56;22.60;46.50
12769;DHT22;6448;48.916;8.990;2023-06-24T03:39:59;22.50;46.50
12769;DHT22;6448;48.916;8.990;2023-06-24T03:41:00;22.50;46.50
12769;DHT22;6448;48.916;8.990;2023-06-24T03:42:02;22.50;46.50
12769;DHT22;6448;48.916;8.990;2023-06-24T03:43:03;22.50;46.60
12769;DHT22;6448;48.916;8.990;2023-06-24T03:44:05;22.50;46.60
12769;DHT22;6448;48.916;8.990;2023-06-24T03:45:08;22.50;46.60
12769;DHT22;6448;48.916;8.990;2023-06-24T03:46:10;22.50;46.70
12769;DHT22;6448;48.916;8.990;2023-06-24T03:47:11;22.60;46.80
12769;DHT22;6448;48.916;8.990;2023-06-24T03:48:13;22.50;46.90
12769;DHT22;6448;48.916;8.990;2023-06-24T03:49:14;22.50;46.90
12769;DHT22;6448;48.916;8.990;2023-06-24T03:50:16;22.50;46.90
12769;DHT22;6448;48.916;8.990;2023-06-24T03:51:19;22.40;46.90
12769;DHT22;6448;48.916;8.990;2023-06-24T03:52:21;22.40;47.10
12769;DHT22;6448;48.916;8.990;2023-06-24T03:53:22;22.40;47.10
12769;DHT22;6448;48.916;8.990;2023-06-24T03:54:27;22.40;47.20
12769;DHT22;6448;48.916;8.990;2023-06-24T03:55:29;22.30;47.20
12769;DHT22;6448;48.916;8.990;2023-06-24T03:56:31;22.40;47.30
12769;DHT22;6448;48.916;8.990;2023-06-24T03:57:35;22.40;47.30
12769;DHT22;6448;48.916;8.990;2023-06-24T03:58:39;22.40;47.40
12769;DHT22;6448;48.916;8.990;2023-06-24T03:59:40;22.40;47.50
12769;DHT22;6448;48.916;8.990;2023-06-24T04:00:42;22.40;47.60
12769;DHT22;6448;48.916;8.990;2023-06-24T04:01:44;22.40;47.60
12769;DHT22;6448;48.916;8.990;2023-06-24T04:02:46;22.40;47.70
12769;DHT22;6448;48.916;8.990;2023-06-24T04:03:47;22.40;47.80
12769;DHT22;6448;48.916;8.990;2023-06-24T04:04:49;22.40;47.90
12769;DHT22;6448;48.916;8.990;2023-06-24T04:05:53;22.40;47.90
12769;DHT22;6448;48.916;8.990;2023-06-24T04:06:57;22.40;47.90
12769;DHT22;6448;48.916;8.990;2023-06-24T04:07:58;22.40;47.90
12769;DHT22;6448;48.916;8.990;2023-06-24T04:09:00;22.40;48.00
12769;DHT22;6448;48.916;8.990;2023-06-24T04:10:03;22.40;48.00
12769;DHT22;6448;48.916;8.990;2023-06-24T04:11:09;22.40;48.00
12769;DHT22;6448;48.916;8.990;2023-06-24T04:12:10;22.50;48.10
12769;DHT22;6448;48.916;8.990;2023-06-24T04:13:11;22.40;48.00
12769;DHT22;6448;48.916;8.990;2023-06-24T04:14:13;22.40;48.70
12769;DHT22;6448;48.916;8.990;2023-06-24T04:15:15;22.40;48.20
12769;DHT22;6448;48.916;8.990;2023-06-24T04:16:16;22.30;48.10
12769;DHT22;6448;48.916;8.990;2023-06-24T04:17:17;22.30;48.20
12769;DHT22;6448;48.916;8.990;2023-06-24T04:18:19;22.30;48.10
12769;DHT22;6448;48.916;8.990;2023-06-24T04:19:21;22.40;48.30
12769;DHT22;6448;48.916;8.990;2023-06-24T04:20:21;22.30;48.20
12769;DHT22;6448;48.916;8.990;2023-06-24T04:21:25;22.30;48.30
12769;DHT22;6448;48.916;8.990;2023-06-24T04:22:27;22.40;48.30
12769;DHT22;6448;48.916;8.990;2023-06-24T04:23:32;22.30;48.30
12769;DHT22;6448;48.916;8.990;2023-06-24T04:24:33;22.30;48.30
12769;DHT22;6448;48.916;8.990;2023-06-24T04:25:35;22.40;48.50
12769;DHT22;6448;48.916;8.990;2023-06-24T04:26:36;22.30;48.50
12769;DHT22;6448;48.916;8.990;2023-06-24T04:27:38;22.30;48.60
12769;DHT22;6448;48.916;8.990;2023-06-24T04:28:41;22.50;48.70
12769;DHT22;6448;48.916;8.990;2023-06-24T04:29:43;22.30;48.70
12769;DHT22;6448;48.916;8.990;2023-06-24T04:30:44;22.30;48.80
12769;DHT22;6448;48.916;8.990;2023-06-24T04:31:46;22.30;48.80
12769;DHT22;6448;48.916;8.990;2023-06-24T04:32:47;22.40;48.80
12769;DHT22;6448;48.916;8.990;2023-06-24T04:33:49;22.30;48.90
12769;DHT22;6448;48.916;8.990;2023-06-24T04:34:50;22.40;49.00
12769;DHT22;6448;48.916;8.990;2023-06-24T04:35:51;22.40;49.00
12769;DHT22;6448;48.916;8.990;2023-06-24T04:36:53;22.30;49.00
12769;DHT22;6448;48.916;8.990;2023-06-24T04:37:57;22.30;49.00
12769;DHT22;6448;48.916;8.990;2023-06-24T04:38:59;22.30;49.10
12769;DHT22;6448;48.916;8.990;2023-06-24T04:40:01;22.30;49.10
12769;DHT22;6448;48.916;8.990;2023-06-24T04:41:01;22.40;49.20
12769;DHT22;6448;48.916;8.990;2023-06-24T04:42:04;22.40;49.20
12769;DHT22;6448;48.916;8.990;2023-06-24T04:43:05;22.40;49.20
12769;DHT22;6448;48.916;8.990;2023-06-24T04:44:07;22.40;49.20
12769;DHT22;6448;48.916;8.990;2023-06-24T04:45:08;22.40;49.30
12769;DHT22;6448;48.916;8.990;2023-06-24T04:46:10;22.40;49.30
12769;DHT22;6448;48.916;8.990;2023-06-24T04:47:11;22.40;49.40
12769;DHT22;6448;48.916;8.990;2023-06-24T04:48:14;22.50;49.40
12769;DHT22;6448;48.916;8.990;2023-06-24T04:49:15;22.40;49.40
12769;DHT22;6448;48.916;8.990;2023-06-24T04:50:17;22.40;49.40
12769;DHT22;6448;48.916;8.990;2023-06-24T04:51:17;22.40;49.50
12769;DHT22;6448;48.916;8.990;2023-06-24T04:52:19;22.40;49.50
12769;DHT22;6448;48.916;8.990;2023-06-24T04:53:21;22.40;49.50
12769;DHT22;6448;48.916;8.990;2023-06-24T04:54:23;22.40;49.60
12769;DHT22;6448;48.916;8.990;2023-06-24T04:55:24;22.50;49.70
12769;DHT22;6448;48.916;8.990;2023-06-24T04:56:26;22.40;49.70
12769;DHT22;6448;48.916;8.990;2023-06-24T04:57:28;22.40;49.70
12769;DHT22;6448;48.916;8.990;2023-06-24T04:58:30;22.40;49.70
12769;DHT22;6448;48.916;8.990;2023-06-24T04:59:31;22.40;49.70
12769;DHT22;6448;48.916;8.990;2023-06-24T05:00:32;22.50;49.80
12769;DHT22;6448;48.916;8.990;2023-06-24T05:01:34;22.40;49.80
12769;DHT22;6448;48.916;8.990;2023-06-24T05:02:35;22.50;49.80
12769;DHT22;6448;48.916;8.990;2023-06-24T05:03:37;22.40;49.80
12769;DHT22;6448;48.916;8.990;2023-06-24T05:04:38;22.40;49.80
12769;DHT22;6448;48.916;8.990;2023-06-24T05:05:39;22.40;49.80
12769;DHT22;6448;48.916;8.990;2023-06-24T05:06:40;22.40;49.80
12769;DHT22;6448;48.916;8.990;2023-06-24T05:07:42;22.40;49.90
12769;DHT22;6448;48.916;8.990;2023-06-24T05:08:44;22.40;49.90
12769;DHT22;6448;48.916;8.990;2023-06-24T05:09:46;22.50;50.00
12769;DHT22;6448;48.916;8.990;2023-06-24T05:10:47;22.60;50.10
12769;DHT22;6448;48.916;8.990;2023-06-24T05:11:49;22.40;50.00
12769;DHT22;6448;48.916;8.990;2023-06-24T05:12:50;22.50;50.10
12769;DHT22;6448;48.916;8.990;2023-06-24T05:13:52;22.50;50.10
12769;DHT22;6448;48.916;8.990;2023-06-24T05:14:54;22.50;50.10
12769;DHT22;6448;48.916;8.990;2023-06-24T05:15:56;22.50;50.10
12769;DHT22;6448;48.916;8.990;2023-06-24T05:16:56;22.50;50.20
12769;DHT22;6448;48.916;8.990;2023-06-24T05:17:58;22.50;50.30
12769;DHT22;6448;48.916;8.990;2023-06-24T05:18:59;22.50;50.30
12769;DHT22;6448;48.916;8.990;2023-06-24T05:20:01;22.50;50.40
12769;DHT22;6448;48.916;8.990;2023-06-24T05:21:02;22.50;50.50
12769;DHT22;6448;48.916;8.990;2023-06-24T05:22:04;22.50;50.50
12769;DHT22;6448;48.916;8.990;2023-06-24T05:23:04;22.50;50.90
12769;DHT22;6448;48.916;8.990;2023-06-24T05:24:08;22.40;50.50
12769;DHT22;6448;48.916;8.990;2023-06-24T05:25:09;22.50;50.60
12769;DHT22;6448;48.916;8.990;2023-06-24T05:26:10;22.60;50.70
12769;DHT22;6448;48.916;8.990;2023-06-24T05:27:12;22.60;50.80
12769;DHT22;6448;48.916;8.990;2023-06-24T05:28:14;22.60;50.80
12769;DHT22;6448;48.916;8.990;2023-06-24T05:29:15;22.60;50.80
12769;DHT22;6448;48.916;8.990;2023-06-24T05:30:17;22.60;50.90
12769;DHT22;6448;48.916;8.990;2023-06-24T05:31:18;22.60;50.90
12769;DHT22;6448;48.916;8.990;2023-06-24T05:32:20;22.60;51.00
12769;DHT22;6448;48.916;8.990;2023-06-24T05:33:20;22.70;51.00
12769;DHT22;6448;48.916;8.990;2023-06-24T05:34:22;22.60;50.90
12769;DHT22;6448;48.916;8.990;2023-06-24T05:35:23;22.60;51.00
12769;DHT22;6448;48.916;8.990;2023-06-24T05:36:25;22.70;51.00
12769;DHT22;6448;48.916;8.990;2023-06-24T05:37:26;22.70;51.20
12769;DHT22;6448;48.916;8.990;2023-06-24T05:38:27;22.70;51.20
12769;DHT22;6448;48.916;8.990;2023-06-24T05:39:30;22.70;51.10
12769;DHT22;6448;48.916;8.990;2023-06-24T05:40:32;22.70;51.20
12769;DHT22;6448;48.916;8.990;2023-06-24T05:41:33;22.70;51.70
12769;DHT22;6448;48.916;8.990;2023-06-24T05:42:35;22.70;51.20
12769;DHT22;6448;48.916;8.990;2023-06-24T05:43:37;22.60;51.10
12769;DHT22;6448;48.916;8.990;2023-06-24T05:44:38;22.70;51.20
12769;DHT22;6448;48.916;8.990;2023-06-24T05:45:40;22.70;51.30
12769;DHT22;6448;48.916;8.990;2023-06-24T05:46:40;22.70;51.30
12769;DHT22;6448;48.916;8.990;2023-06-24T05:47:42;22.70;51.30
12769;DHT22;6448;48.916;8.990;2023-06-24T05:48:43;22.80;51.50
12769;DHT22;6448;48.916;8.990;2023-06-24T05:49:45;22.90;51.50
12769;DHT22;6448;48.916;8.990;2023-06-24T05:50:46;22.90;51.40
12769;DHT22;6448;48.916;8.990;2023-06-24T05:51:48;22.60;51.30
12769;DHT22;6448;48.916;8.990;2023-06-24T05:52:49;22.80;51.40
12769;DHT22;6448;48.916;8.990;2023-06-24T05:53:51;22.80;51.60
12769;DHT22;6448;48.916;8.990;2023-06-24T05:54:53;22.90;51.60
12769;DHT22;6448;48.916;8.990;2023-06-24T05:55:54;22.90;51.70
12769;DHT22;6448;48.916;8.990;2023-06-24T05:56:55;22.90;51.70
12769;DHT22;6448;48.916;8.990;2023-06-24T05:57:57;22.90;51.60
12769;DHT22;6448;48.916;8.990;2023-06-24T05:58:58;22.50;51.50
12769;DHT22;6448;48.916;8.990;2023-06-24T06:00:00;22.90;51.70
12769;DHT22;6448;48.916;8.990;2023-06-24T06:01:00;22.90;51.70
12769;DHT22;6448;48.916;8.990;2023-06-24T06:02:02;22.90;51.70
12769;DHT22;6448;48.916;8.990;2023-06-24T06:03:03;23.10;51.70
12769;DHT22;6448;48.916;8.990;2023-06-24T06:04:05;22.90;51.50
12769;DHT22;6448;48.916;8.990;2023-06-24T06:05:06;22.90;51.50
12769;DHT22;6448;48.916;8.990;2023-06-24T06:06:08;23.00;51.60
12769;DHT22;6448;48.916;8.990;2023-06-24T06:07:09;23.00;51.50
12769;DHT22;6448;48.916;8.990;2023-06-24T06:08:10;23.00;51.70
12769;DHT22;6448;48.916;8.990;2023-06-24T06:09:11;23.00;51.70
12769;DHT22;6448;48.916;8.990;2023-06-24T06:10:14;23.00;51.70
12769;DHT22;6448;48.916;8.990;2023-06-24T06:11:17;23.00;51.70
12769;DHT22;6448;48.916;8.990;2023-06-24T06:12:19;23.00;51.70
12769;DHT22;6448;48.916;8.990;2023-06-24T06:13:20;23.10;51.70
12769;DHT22;6448;48.916;8.990;2023-06-24T06:14:22;23.10;51.70
12769;DHT22;6448;48.916;8.990;2023-06-24T06:15:24;23.20;51.90
12769;DHT22;6448;48.916;8.990;2023-06-24T06:16:24;23.10;51.80
12769;DHT22;6448;48.916;8.990;2023-06-24T06:17:27;23.10;51.90
12769;DHT22;6448;48.916;8.990;2023-06-24T06:18:27;23.10;51.80
12769;DHT22;6448;48.916;8.990;2023-06-24T06:19:29;23.10;51.70
12769;DHT22;6448;48.916;8.990;2023-06-24T06:20:30;23.10;51.70
12769;DHT22;6448;48.916;8.990;2023-06-24T06:21:32;23.10;51.80
12769;DHT22;6448;48.916;8.990;2023-06-24T06:22:33;23.20;51.90
12769;DHT22;6448;48.916;8.990;2023-06-24T06:23:38;23.20;51.90
12769;DHT22;6448;48.916;8.990;2023-06-24T06:24:38;23.20;51.90
12769;DHT22;6448;48.916;8.990;2023-06-24T06:25:42;23.20;51.80
12769;DHT22;6448;48.916;8.990;2023-06-24T06:26:43;23.20;51.80
12769;DHT22;6448;48.916;8.990;2023-06-24T06:27:45;23.20;51.70
12769;DHT22;6448;48.916;8.990;2023-06-24T06:28:45;23.20;51.70
12769;DHT22;6448;48.916;8.990;2023-06-24T06:29:48;23.20;51.70
12769;DHT22;6448;48.916;8.990;2023-06-24T06:30:49;23.20;51.60
12769;DHT22;6448;48.916;8.990;2023-06-24T06:31:51;23.30;51.70
12769;DHT22;6448;48.916;8.990;2023-06-24T06:32:53;23.50;51.90
12769;DHT22;6448;48.916;8.990;2023-06-24T06:33:55;23.30;51.80
12769;DHT22;6448;48.916;8.990;2023-06-24T06:34:55;23.40;51.90
12769;DHT22;6448;48.916;8.990;2023-06-24T06:35:57;23.50;52.60
12769;DHT22;6448;48.916;8.990;2023-06-24T06:36:59;23.40;51.90
12769;DHT22;6448;48.916;8.990;2023-06-24T06:38:00;23.40;51.90
12769;DHT22;6448;48.916;8.990;2023-06-24T06:39:02;23.40;51.90
12769;DHT22;6448;48.916;8.990;2023-06-24T06:40:03;23.40;51.90
12769;DHT22;6448;48.916;8.990;2023-06-24T06:41:06;23.40;51.80
12769;DHT22;6448;48.916;8.990;2023-06-24T06:42:08;23.40;51.60
12769;DHT22;6448;48.916;8.990;2023-06-24T06:43:09;23.40;51.60
12769;DHT22;6448;48.916;8.990;2023-06-24T06:44:10;23.40;51.60
12769;DHT22;6448;48.916;8.990;2023-06-24T06:45:12;23.30;51.70